Accueil
METAR-TAF:

METAR-TAF

Aéroports :

Ferrare, Italie

latitude: 44-50N, longitude: 011-37E, altitude: 10 m

Observation

Le bulletin a été fait il y a 39 minutes, à 06:55 UTC
Vent calme
Température -1°C
Humidité 100%
Pression 1030 hPa
Visibilité: 0100 m
brouillard givrant

METAR: LIPF 240655Z 00000KT 0100 FZFG VV/// M01/M01 Q1030 RMK VIS MIN 0100

Heure: 08:34 (07:34 UTC)


TAF: absent

Observations et prévisions météorologiques de plus de 4000 aéroports (messages METAR et TAF).

Les stations disponibles sont représentées par des disques jaunes et rouges sur la carte.

Passer la souris dessus pour voir le nom de la station.

Cliquer dessus pour voir les observations et prévisions météorologiques.

Pour changer de carte: cliquez sur les boutons verts avec une croix noire pour zoomer, sur le bouton vert avec un tiret pour effectuer un zoom arrière, ou sur les flèches vertes pour les cartes adjacentes.


METAR-TAF: